createdAt,value
2022-12-25T00:01:35.732Z,101008.72
2022-12-25T00:04:03.476Z,101015.47
2022-12-25T00:06:31.140Z,101021.88
2022-12-25T00:08:58.856Z,101011.31
2022-12-25T00:11:26.478Z,101014.44
2022-12-25T00:13:55.499Z,101009.94
2022-12-25T00:16:25.868Z,101018.25
2022-12-25T00:18:54.648Z,101013.28
2022-12-25T00:21:22.882Z,101016.75
2022-12-25T00:23:55.428Z,101021.34
2022-12-25T00:26:23.589Z,101017.31
2022-12-25T00:28:53.805Z,101019.06
2022-12-25T00:31:23.971Z,101017.91
2022-12-25T00:33:53.255Z,101022.78
2022-12-25T00:36:22.585Z,101024.19
2022-12-25T00:38:50.282Z,101038.88
2022-12-25T00:41:40.985Z,101037.22
2022-12-25T00:44:09.209Z,101038.41
2022-12-25T00:46:38.372Z,101037.94
2022-12-25T00:49:06.610Z,101034.16
2022-12-25T00:51:34.421Z,101035.34
2022-12-25T00:54:02.144Z,101029.31
2022-12-25T00:56:29.915Z,101034.63
2022-12-25T00:58:57.591Z,101038.66
2022-12-25T01:01:25.347Z,101051.44
2022-12-25T01:03:54.449Z,101056.75
2022-12-25T01:06:22.137Z,101058.66
2022-12-25T01:09:03.796Z,101065.50
2022-12-25T01:11:31.584Z,101066.00
2022-12-25T01:13:59.476Z,101073.78
2022-12-25T01:16:27.546Z,101071.41
2022-12-25T01:18:56.733Z,101072.84
2022-12-25T01:21:24.953Z,101065.38
2022-12-25T01:23:53.994Z,101070.69
2022-12-25T01:26:23.358Z,101073.03
2022-12-25T01:28:51.479Z,101083.69
2022-12-25T01:31:22.013Z,101088.66
2022-12-25T01:33:49.763Z,101089.56
2022-12-25T01:36:21.412Z,101096.78
2022-12-25T01:38:50.610Z,101103.28
2022-12-25T01:41:21.929Z,101096.50
2022-12-25T01:44:02.714Z,101111.06
2022-12-25T01:46:31.123Z,101109.88
2022-12-25T01:49:02.966Z,101114.59
2022-12-25T01:51:36.259Z,101120.50
2022-12-25T01:54:08.065Z,101117.31
2022-12-25T01:56:38.727Z,101110.47
2022-12-25T01:59:09.021Z,101116.13
2022-12-25T02:01:37.053Z,101110.56
2022-12-25T02:04:09.967Z,101107.13
2022-12-25T02:06:39.016Z,101114.50
2022-12-25T02:09:06.797Z,101115.69
2022-12-25T02:11:51.846Z,101124.25
2022-12-25T02:14:19.903Z,101128.81
2022-12-25T02:16:57.782Z,101128.06
2022-12-25T02:19:42.002Z,101131.69
2022-12-25T02:22:40.349Z,101128.75
2022-12-25T02:25:23.854Z,101126.03
2022-12-25T02:28:08.952Z,101128.22
2022-12-25T02:30:41.842Z,101130.56
2022-12-25T02:33:32.678Z,101130.41
2022-12-25T02:36:05.226Z,101136.44
2022-12-25T02:38:37.259Z,101132.31
2022-12-25T02:41:08.390Z,101142.94
2022-12-25T02:44:00.208Z,101143.16
2022-12-25T02:46:48.435Z,101149.25
2022-12-25T02:49:48.746Z,101138.84
2022-12-25T02:52:38.195Z,101138.72
2022-12-25T02:55:27.414Z,101138.78
2022-12-25T02:58:16.777Z,101143.50
2022-12-25T03:01:06.950Z,101141.47
2022-12-25T03:03:59.266Z,101138.97
2022-12-25T03:06:46.353Z,101154.47
2022-12-25T03:09:36.199Z,101153.84
2022-12-25T03:12:09.237Z,101157.53
2022-12-25T03:14:54.422Z,101153.09
2022-12-25T03:17:23.582Z,101152.03
2022-12-25T03:20:08.590Z,101148.28
2022-12-25T03:22:55.251Z,101153.09
2022-12-25T03:25:40.499Z,101141.41
2022-12-25T03:28:08.167Z,101143.50
2022-12-25T03:30:59.877Z,101150.38
2022-12-25T03:33:48.173Z,101156.53
2022-12-25T03:36:23.961Z,101162.44
2022-12-25T03:39:21.463Z,101163.72
2022-12-25T03:42:11.176Z,101160.63
2022-12-25T03:45:01.836Z,101169.19
2022-12-25T03:47:50.145Z,101166.31
2022-12-25T03:50:40.648Z,101172.91
2022-12-25T03:53:28.769Z,101177.31
2022-12-25T03:56:15.042Z,101178.59
2022-12-25T03:59:09.989Z,101190.34
2022-12-25T04:01:55.572Z,101184.97
2022-12-25T04:04:40.702Z,101187.50
2022-12-25T04:07:27.284Z,101189.38
2022-12-25T04:10:12.423Z,101197.47
2022-12-25T04:12:57.829Z,101198.53
2022-12-25T04:15:43.237Z,101201.84
2022-12-25T04:18:28.472Z,101203.94
2022-12-25T04:21:13.801Z,101196.44
2022-12-25T04:24:00.274Z,101202.47
2022-12-25T04:26:45.586Z,101211.53
2022-12-25T04:29:30.895Z,101213.50
2022-12-25T04:32:16.032Z,101211.25
2022-12-25T04:35:01.277Z,101202.75
2022-12-25T04:37:28.922Z,101205.94
2022-12-25T04:39:57.952Z,101209.84
2022-12-25T04:42:25.641Z,101210.31
2022-12-25T04:44:53.307Z,101216.78
2022-12-25T04:47:21.140Z,101222.03
2022-12-25T04:49:48.863Z,101223.50
2022-12-25T04:52:16.621Z,101230.16
2022-12-25T04:54:44.319Z,101226.22
2022-12-25T04:57:13.341Z,101233.31
2022-12-25T04:59:40.996Z,101238.28
2022-12-25T05:02:08.890Z,101232.25
2022-12-25T05:04:36.638Z,101233.25
2022-12-25T05:07:04.334Z,101224.06
2022-12-25T05:09:32.006Z,101224.94
2022-12-25T05:11:59.606Z,101224.31
2022-12-25T05:14:28.893Z,101220.19
2022-12-25T05:16:56.508Z,101213.31
2022-12-25T05:19:24.226Z,101205.00
2022-12-25T05:21:51.898Z,101206.25
2022-12-25T05:24:19.769Z,101213.75
2022-12-25T05:26:47.588Z,101218.31
2022-12-25T05:29:15.252Z,101212.09
2022-12-25T05:31:44.326Z,101203.78
2022-12-25T05:34:11.992Z,101199.66
2022-12-25T05:36:39.804Z,101210.69
2022-12-25T05:39:07.433Z,101219.03
2022-12-25T05:41:35.136Z,101219.84
2022-12-25T05:44:03.002Z,101219.66
2022-12-25T05:46:30.708Z,101219.66
2022-12-25T05:48:59.771Z,101219.66
2022-12-25T05:51:27.479Z,101226.94
2022-12-25T05:53:55.202Z,101226.50
2022-12-25T05:56:22.896Z,101218.81
2022-12-25T05:58:50.586Z,101224.22
2022-12-25T06:01:20.453Z,101210.94
2022-12-25T06:03:48.649Z,101208.41
2022-12-25T06:06:17.738Z,101206.53
2022-12-25T06:08:45.711Z,101201.53
2022-12-25T06:11:15.102Z,101194.91
2022-12-25T06:13:42.993Z,101206.97
2022-12-25T06:16:13.054Z,101201.78
2022-12-25T06:18:43.259Z,101195.09
2022-12-25T06:21:13.006Z,101192.19
2022-12-25T06:23:43.174Z,101189.69
2022-12-25T06:26:14.140Z,101191.75
2022-12-25T06:28:42.023Z,101187.63
2022-12-25T06:31:13.481Z,101200.50
2022-12-25T06:33:41.934Z,101200.31
2022-12-25T06:36:11.495Z,101201.97
2022-12-25T06:38:39.120Z,101201.97
2022-12-25T06:41:10.305Z,101206.53
2022-12-25T06:43:37.947Z,101210.25
2022-12-25T06:46:07.325Z,101211.53
2022-12-25T06:48:36.158Z,101203.41
2022-12-25T06:51:04.992Z,101203.41
2022-12-25T06:53:39.661Z,101194.69
2022-12-25T06:56:15.252Z,101199.66
2022-12-25T06:58:44.212Z,101206.13
2022-12-25T07:01:16.902Z,101216.75
2022-12-25T07:03:46.517Z,101213.81
2022-12-25T07:06:15.044Z,101225.06
2022-12-25T07:08:42.664Z,101224.63
2022-12-25T07:11:11.687Z,101232.13
2022-12-25T07:13:39.372Z,101225.28
2022-12-25T07:16:07.800Z,101229.63
2022-12-25T07:18:36.345Z,101240.66
2022-12-25T07:21:07.798Z,101250.00
2022-12-25T07:23:35.511Z,101250.41
2022-12-25T07:26:03.560Z,101249.78
2022-12-25T07:28:33.254Z,101253.53
2022-12-25T07:31:04.950Z,101258.13
2022-12-25T07:33:32.892Z,101262.69
2022-12-25T07:36:00.719Z,101261.88
2022-12-25T07:38:28.309Z,101273.72
2022-12-25T07:40:55.981Z,101275.63
2022-12-25T07:43:25.156Z,101276.44
2022-12-25T07:45:57.805Z,101274.13
2022-12-25T07:48:25.578Z,101266.03
2022-12-25T07:50:57.672Z,101263.94
2022-12-25T07:53:25.393Z,101264.81
2022-12-25T07:55:58.530Z,101252.94
2022-12-25T07:58:26.248Z,101257.72
2022-12-25T08:00:54.047Z,101252.53
2022-12-25T08:03:23.561Z,101258.13
2022-12-25T08:05:51.382Z,101260.84
2022-12-25T08:08:19.104Z,101266.25
2022-12-25T08:10:47.805Z,101270.22
2022-12-25T08:13:15.461Z,101264.56
2022-12-25T08:15:43.117Z,101272.47
2022-12-25T08:18:10.919Z,101274.53
2022-12-25T08:20:40.079Z,101272.44
2022-12-25T08:23:07.888Z,101260.38
2022-12-25T08:25:36.134Z,101268.88
2022-12-25T08:28:03.770Z,101285.09
2022-12-25T08:30:31.825Z,101279.47
2022-12-25T08:32:59.564Z,101269.91
2022-12-25T08:35:27.333Z,101270.09
2022-12-25T08:37:56.368Z,101254.72
2022-12-25T08:40:23.990Z,101252.03
2022-12-25T08:42:51.693Z,101249.16
2022-12-25T08:45:19.325Z,101254.97
2022-12-25T08:47:46.945Z,101249.38
2022-12-25T08:50:14.668Z,101250.81
2022-12-25T08:52:42.342Z,101246.47
2022-12-25T08:55:12.013Z,101252.91
2022-12-25T08:57:39.649Z,101247.94
2022-12-25T09:00:08.764Z,101235.66
2022-12-25T09:02:36.577Z,101235.88
2022-12-25T09:05:04.456Z,101217.34
2022-12-25T09:07:32.071Z,101205.28
2022-12-25T09:09:59.770Z,101207.59
2022-12-25T09:12:28.811Z,101212.38
2022-12-25T09:14:56.438Z,101203.59
2022-12-25T09:17:24.104Z,101200.47
2022-12-25T09:19:51.796Z,101195.06
2022-12-25T09:22:19.551Z,101198.78
2022-12-25T09:24:47.243Z,101201.06
2022-12-25T09:27:14.859Z,101199.19
2022-12-25T09:29:43.885Z,101198.53
2022-12-25T09:32:11.489Z,101195.59
2022-12-25T09:34:39.086Z,101194.16
2022-12-25T09:37:06.739Z,101193.53
2022-12-25T09:39:34.372Z,101194.34
2022-12-25T09:42:04.948Z,101199.94
2022-12-25T09:44:35.897Z,101201.84
2022-12-25T09:47:07.905Z,101189.13
2022-12-25T09:49:40.299Z,101190.59
2022-12-25T09:52:13.630Z,101203.72
2022-12-25T09:54:52.459Z,101201.84
2022-12-25T09:57:20.274Z,101202.69
2022-12-25T09:59:48.009Z,101197.25
2022-12-25T10:02:58.699Z,101205.81
2022-12-25T10:05:48.535Z,101207.06
2022-12-25T10:08:26.027Z,101210.59
2022-12-25T10:11:02.301Z,101205.38
2022-12-25T10:13:49.221Z,101209.97
2022-12-25T10:16:27.765Z,101204.56
2022-12-25T10:19:11.160Z,101211.63
2022-12-25T10:21:39.258Z,101212.00
2022-12-25T10:24:17.834Z,101220.13
2022-12-25T10:26:46.234Z,101209.91
2022-12-25T10:29:15.939Z,101213.47
2022-12-25T10:31:47.025Z,101211.56
2022-12-25T10:34:17.361Z,101185.75
2022-12-25T10:36:46.527Z,101169.66
2022-12-25T10:39:18.286Z,101174.22
2022-12-25T10:42:01.029Z,101172.13
2022-12-25T10:44:28.705Z,101164.22
2022-12-25T10:46:58.836Z,101159.16
2022-12-25T10:49:31.501Z,101159.56
2022-12-25T10:51:59.269Z,101165.97
2022-12-25T10:54:29.662Z,101160.50
2022-12-25T10:56:59.998Z,101157.59
2022-12-25T10:59:30.259Z,101155.94
2022-12-25T11:02:06.314Z,101147.53
2022-12-25T11:04:36.524Z,101152.34
2022-12-25T11:07:07.702Z,101142.94
2022-12-25T11:09:35.577Z,101145.97
2022-12-25T11:12:03.646Z,101156.19
2022-12-25T11:14:31.342Z,101157.88
2022-12-25T11:17:09.070Z,101150.97
2022-12-25T11:19:38.177Z,101159.88
2022-12-25T11:22:17.674Z,101161.69
2022-12-25T11:24:45.379Z,101156.31
2022-12-25T11:27:26.264Z,101149.81
2022-12-25T11:29:59.098Z,101151.19
2022-12-25T11:32:31.349Z,101150.28
2022-12-25T11:35:02.710Z,101134.25
2022-12-25T11:37:36.736Z,101146.78
2022-12-25T11:40:05.621Z,101151.75
2022-12-25T11:42:36.495Z,101158.56
2022-12-25T11:45:08.880Z,101156.28
2022-12-25T11:47:41.328Z,101118.38
2022-12-25T11:50:28.810Z,101105.22
2022-12-25T11:52:56.805Z,101100.63
2022-12-25T11:55:34.799Z,101091.84
2022-12-25T11:58:07.286Z,101077.25
2022-12-25T12:00:36.743Z,101049.06
2022-12-25T12:03:14.620Z,101046.84
2022-12-25T12:05:47.778Z,101031.19
2022-12-25T12:08:15.554Z,101037.44
2022-12-25T12:11:16.626Z,101038.88
2022-12-25T12:13:58.642Z,101036.97
2022-12-25T12:16:26.606Z,101034.84
2022-12-25T12:18:54.405Z,101040.28
2022-12-25T12:21:26.077Z,101039.47
2022-12-25T12:23:57.812Z,101052.59
2022-12-25T12:26:28.512Z,101060.94
2022-12-25T12:28:59.957Z,101063.19
2022-12-25T12:31:38.917Z,101050.69
2022-12-25T12:34:07.486Z,101034.56
2022-12-25T12:36:37.057Z,101034.91
2022-12-25T12:39:06.225Z,101025.97
2022-12-25T12:41:47.045Z,101029.47
2022-12-25T12:44:17.508Z,101032.19
2022-12-25T12:46:53.144Z,101028.44
2022-12-25T12:49:26.261Z,101034.25
2022-12-25T12:52:07.400Z,101037.16
2022-12-25T12:54:53.834Z,101030.69
2022-12-25T12:57:27.124Z,101020.94
2022-12-25T12:59:54.909Z,101024.03
2022-12-25T13:02:59.274Z,101015.50
2022-12-25T13:05:37.171Z,101010.31
2022-12-25T13:08:19.327Z,101013.63
2022-12-25T13:10:50.975Z,101018.84
2022-12-25T13:13:22.961Z,101020.25
2022-12-25T13:15:52.582Z,101024.63
2022-12-25T13:18:21.397Z,101027.13
2022-12-25T13:20:54.844Z,101030.19
2022-12-25T13:23:28.932Z,101025.38
2022-12-25T13:25:58.536Z,101011.34
2022-12-25T13:28:30.175Z,101010.28
2022-12-25T13:31:06.880Z,101022.53
2022-12-25T13:33:35.654Z,101012.28
2022-12-25T13:36:04.158Z,101005.78
2022-12-25T13:38:33.253Z,100995.75
2022-12-25T13:41:18.382Z,100993.63
2022-12-25T13:43:46.886Z,100987.38
2022-12-25T13:46:15.217Z,100981.94
2022-12-25T13:48:43.227Z,100982.53
2022-12-25T13:51:16.665Z,100967.03
2022-12-25T13:53:45.838Z,100959.75
2022-12-25T13:56:16.430Z,100965.75
2022-12-25T13:58:45.725Z,100978.50
2022-12-25T14:01:18.479Z,100964.59
2022-12-25T14:03:48.087Z,100954.31
2022-12-25T14:06:19.985Z,100949.69
2022-12-25T14:08:49.917Z,100946.50
2022-12-25T14:11:20.449Z,100938.63
2022-12-25T14:13:49.461Z,100931.53
2022-12-25T14:16:19.055Z,100922.78
2022-12-25T14:18:55.470Z,100948.31
2022-12-25T14:21:27.746Z,100945.59
2022-12-25T14:23:57.303Z,100954.19
2022-12-25T14:26:28.492Z,100957.72
2022-12-25T14:29:15.350Z,100960.69
2022-12-25T14:31:45.854Z,100953.59
2022-12-25T14:34:19.554Z,100950.06
2022-12-25T14:36:47.698Z,100958.44
2022-12-25T14:39:31.015Z,100955.72
2022-12-25T14:41:59.165Z,100956.31
2022-12-25T14:44:33.033Z,100958.44
2022-12-25T14:47:06.186Z,100952.19
2022-12-25T14:49:33.929Z,100940.47
2022-12-25T14:52:10.225Z,100936.69
2022-12-25T14:54:39.314Z,100935.03
2022-12-25T14:57:07.104Z,100933.38
2022-12-25T14:59:34.795Z,100919.22
2022-12-25T15:02:02.826Z,100904.56
2022-12-25T15:04:31.146Z,100887.78
2022-12-25T15:07:00.399Z,100882.94
2022-12-25T15:09:29.879Z,100890.03
2022-12-25T15:11:59.277Z,100885.66
2022-12-25T15:14:27.830Z,100890.41
2022-12-25T15:16:59.041Z,100885.53
2022-12-25T15:19:36.642Z,100893.22
2022-12-25T15:22:04.887Z,100878.81
2022-12-25T15:24:32.583Z,100872.06
2022-12-25T15:27:01.649Z,100887.44
2022-12-25T15:30:07.852Z,100893.38
2022-12-25T15:32:20.211Z,100890.88
2022-12-25T15:34:49.874Z,100881.66
2022-12-25T15:37:18.873Z,100885.22
2022-12-25T15:39:47.021Z,100889.81
2022-12-25T15:42:17.887Z,100896.09
2022-12-25T15:44:46.507Z,100898.81
2022-12-25T15:47:16.007Z,100895.25
2022-12-25T15:49:44.287Z,100884.38
2022-12-25T15:52:15.267Z,100876.00
2022-12-25T15:54:43.248Z,100865.72
2022-12-25T15:57:18.352Z,100860.03
2022-12-25T15:59:46.078Z,100855.75
2022-12-25T16:02:16.228Z,100859.31
2022-12-25T16:04:44.297Z,100851.03
2022-12-25T16:07:15.549Z,100860.00
2022-12-25T16:09:44.137Z,100852.44
2022-12-25T16:12:12.130Z,100855.28
2022-12-25T16:14:41.168Z,100842.28
2022-12-25T16:17:12.400Z,100839.91
2022-12-25T16:19:40.086Z,100825.59
2022-12-25T16:22:12.527Z,100829.16
2022-12-25T16:24:40.235Z,100816.13
2022-12-25T16:27:07.833Z,100811.28
2022-12-25T16:29:35.464Z,100820.97
2022-12-25T16:32:04.772Z,100822.00
2022-12-25T16:34:32.410Z,100816.81
2022-12-25T16:37:00.116Z,100812.44
2022-12-25T16:39:27.758Z,100822.00
2022-12-25T16:41:55.464Z,100806.03
2022-12-25T16:44:23.157Z,100813.97
2022-12-25T16:46:50.891Z,100807.19
2022-12-25T16:49:19.961Z,100796.09
2022-12-25T16:51:47.664Z,100789.00
2022-12-25T16:54:15.333Z,100779.75
2022-12-25T16:56:42.973Z,100769.13
2022-12-25T16:59:10.631Z,100755.63
2022-12-25T17:01:43.146Z,100759.44
2022-12-25T17:04:11.164Z,100760.47
2022-12-25T17:06:40.228Z,100746.63
2022-12-25T17:09:07.885Z,100732.31
2022-12-25T17:11:35.547Z,100716.31
2022-12-25T17:14:05.592Z,100717.13
2022-12-25T17:16:35.382Z,100718.28
2022-12-25T17:19:05.127Z,100705.03
2022-12-25T17:21:34.154Z,100703.38
2022-12-25T17:24:04.464Z,100703.97
2022-12-25T17:26:32.530Z,100702.31
2022-12-25T17:29:00.645Z,100705.28
2022-12-25T17:31:29.366Z,100710.78
2022-12-25T17:33:57.606Z,100714.84
2022-12-25T17:36:26.076Z,100706.69
2022-12-25T17:38:53.851Z,100703.97
2022-12-25T17:41:22.857Z,100692.81
2022-12-25T17:43:50.507Z,100690.94
2022-12-25T17:46:20.782Z,100695.53
2022-12-25T17:48:49.953Z,100700.75
2022-12-25T17:51:21.644Z,100697.19
2022-12-25T17:53:50.903Z,100694.81
2022-12-25T17:56:19.914Z,100682.84
2022-12-25T17:58:52.815Z,100673.63
2022-12-25T18:01:20.829Z,100665.22
2022-12-25T18:03:48.720Z,100659.84
2022-12-25T18:06:18.928Z,100647.03
2022-12-25T18:08:47.950Z,100646.56
2022-12-25T18:11:17.538Z,100642.22
2022-12-25T18:13:48.249Z,100630.47
2022-12-25T18:16:18.028Z,100616.13
2022-12-25T18:18:51.768Z,100624.13
2022-12-25T18:21:20.536Z,100627.31
2022-12-25T18:23:49.345Z,100610.75
2022-12-25T18:26:17.498Z,100617.84
2022-12-25T18:28:45.312Z,100611.09
2022-12-25T18:31:15.886Z,100614.88
2022-12-25T18:33:45.295Z,100611.34
2022-12-25T18:36:15.507Z,100616.84
2022-12-25T18:38:43.673Z,100616.59
2022-12-25T18:41:12.247Z,100614.13
2022-12-25T18:43:53.549Z,100605.72
2022-12-25T18:46:24.214Z,100616.63
2022-12-25T18:48:54.348Z,100618.22
2022-12-25T18:51:21.977Z,100600.41
2022-12-25T18:53:49.611Z,100587.91
2022-12-25T18:56:18.644Z,100583.06
2022-12-25T18:58:47.446Z,100568.78
2022-12-25T19:01:18.474Z,100555.75
2022-12-25T19:03:48.736Z,100547.91
2022-12-25T19:06:22.286Z,100549.50
2022-12-25T19:08:49.982Z,100539.19
2022-12-25T19:11:18.241Z,100533.53
2022-12-25T19:13:46.918Z,100523.22
2022-12-25T19:16:14.853Z,100535.44
2022-12-25T19:18:43.314Z,100538.22
2022-12-25T19:21:11.607Z,100530.13
2022-12-25T19:23:41.722Z,100536.38
2022-12-25T19:26:10.703Z,100519.53
2022-12-25T19:28:40.595Z,100516.41
2022-12-25T19:31:10.409Z,100509.31
2022-12-25T19:33:40.681Z,100508.25
2022-12-25T19:36:11.722Z,100502.88
2022-12-25T19:38:41.121Z,100500.41
2022-12-25T19:41:09.152Z,100491.91
2022-12-25T19:43:38.505Z,100488.44
2022-12-25T19:46:07.848Z,100481.94
2022-12-25T19:48:36.898Z,100480.88
2022-12-25T19:51:04.734Z,100487.91
2022-12-25T19:53:32.686Z,100482.97
2022-12-25T19:56:03.679Z,100477.59
2022-12-25T19:58:31.311Z,100471.38
2022-12-25T20:00:59.856Z,100471.00
2022-12-25T20:03:28.032Z,100463.91
2022-12-25T20:05:55.856Z,100457.59
2022-12-25T20:08:23.856Z,100451.81
2022-12-25T20:10:52.105Z,100457.75
2022-12-25T20:13:21.360Z,100456.19
2022-12-25T20:15:49.538Z,100455.03
2022-12-25T20:18:17.798Z,100459.19
2022-12-25T20:20:46.130Z,100456.94
2022-12-25T20:23:13.968Z,100443.56
2022-12-25T20:25:42.346Z,100438.75
2022-12-25T20:28:10.490Z,100430.59
2022-12-25T20:30:40.858Z,100445.75
2022-12-25T20:33:08.604Z,100433.19
2022-12-25T20:35:36.445Z,100430.97
2022-12-25T20:38:04.289Z,100432.78
2022-12-25T20:40:41.642Z,100434.09
2022-12-25T20:43:19.617Z,100419.13
2022-12-25T20:45:52.538Z,100421.34
2022-12-25T20:48:20.502Z,100418.06
2022-12-25T20:50:48.165Z,100403.31
2022-12-25T20:53:15.906Z,100411.53
2022-12-25T20:55:45.819Z,100398.97
2022-12-25T20:58:14.176Z,100403.13
2022-12-25T21:00:42.501Z,100404.00
2022-12-25T21:03:11.857Z,100399.13
2022-12-25T21:05:49.574Z,100402.03
2022-12-25T21:08:17.904Z,100404.25
2022-12-25T21:10:50.236Z,100401.06
2022-12-25T21:13:18.244Z,100395.81
2022-12-25T21:15:46.078Z,100386.56
2022-12-25T21:18:15.417Z,100381.50
2022-12-25T21:20:45.344Z,100377.44
2022-12-25T21:23:13.015Z,100382.78
2022-12-25T21:25:40.734Z,100378.16
2022-12-25T21:28:08.444Z,100377.84
2022-12-25T21:30:36.692Z,100374.06
2022-12-25T21:33:21.922Z,100374.06
2022-12-25T21:35:50.906Z,100371.34
2022-12-25T21:38:18.513Z,100377.38
2022-12-25T21:40:46.190Z,100372.41
2022-12-25T21:43:15.102Z,100372.09
2022-12-25T21:45:42.806Z,100366.44
2022-12-25T21:48:10.478Z,100354.19
2022-12-25T21:50:55.959Z,100352.81
2022-12-25T21:53:24.931Z,100354.72
2022-12-25T21:55:59.081Z,100364.00
2022-12-25T21:58:26.739Z,100350.38
2022-12-25T22:00:54.869Z,100348.75
2022-12-25T22:03:22.588Z,100353.44
2022-12-25T22:06:07.645Z,100341.91
2022-12-25T22:08:36.655Z,100357.44
2022-12-25T22:11:04.993Z,100352.03
2022-12-25T22:13:49.988Z,100353.97
2022-12-25T22:16:35.165Z,100354.25
2022-12-25T22:19:20.639Z,100356.94
2022-12-25T22:21:48.286Z,100360.81
2022-12-25T22:24:17.284Z,100353.44
2022-12-25T22:26:46.053Z,100353.69
2022-12-25T22:29:13.674Z,100363.84
2022-12-25T22:31:46.640Z,100369.59
2022-12-25T22:34:16.166Z,100359.56
2022-12-25T22:36:43.833Z,100342.31
2022-12-25T22:39:11.539Z,100345.34
2022-12-25T22:41:40.594Z,100341.25
2022-12-25T22:44:17.455Z,100333.34
2022-12-25T22:46:45.898Z,100331.94
2022-12-25T22:49:15.345Z,100328.66
2022-12-25T22:51:43.320Z,100334.69
2022-12-25T22:54:13.075Z,100331.66
2022-12-25T22:56:42.133Z,100328.72
2022-12-25T22:59:09.911Z,100325.50
2022-12-25T23:01:37.788Z,100322.75
2022-12-25T23:04:07.167Z,100314.56
2022-12-25T23:06:35.550Z,100324.66
2022-12-25T23:09:03.602Z,100312.09
2022-12-25T23:11:31.350Z,100315.38
2022-12-25T23:14:17.723Z,100304.22
2022-12-25T23:16:45.355Z,100303.34
2022-12-25T23:19:31.206Z,100300.63
2022-12-25T23:22:17.523Z,100297.91
2022-12-25T23:25:02.834Z,100297.13
2022-12-25T23:27:30.518Z,100287.53
2022-12-25T23:29:58.541Z,100300.94
2022-12-25T23:32:27.974Z,100299.84
2022-12-25T23:34:56.359Z,100287.53
2022-12-25T23:37:24.135Z,100288.09
2022-12-25T23:39:51.762Z,100302.56
2022-12-25T23:42:19.522Z,100288.63
2022-12-25T23:44:47.150Z,100283.16
2022-12-25T23:47:16.780Z,100280.19
2022-12-25T23:49:44.417Z,100298.69
2022-12-25T23:52:12.610Z,100288.38
2022-12-25T23:54:40.274Z,100292.19
2022-12-25T23:57:07.938Z,100303.34
2022-12-25T23:59:35.656Z,100290.50
